createdAt,value
2019-03-30T00:00:29.822Z,67.90
2019-03-30T00:03:34.211Z,68.10
2019-03-30T00:06:38.493Z,69.20
2019-03-30T00:09:43.089Z,68.30
2019-03-30T00:12:47.426Z,68.60
2019-03-30T00:15:51.663Z,68.80
2019-03-30T00:18:56.220Z,68.20
2019-03-30T00:22:00.409Z,68.50
2019-03-30T00:25:05.056Z,68.40
2019-03-30T00:28:09.281Z,68.60
2019-03-30T00:31:13.510Z,68.30
2019-03-30T00:34:17.725Z,68.50
2019-03-30T00:37:22.938Z,68.90
2019-03-30T00:40:27.661Z,68.90
2019-03-30T00:43:31.956Z,69.30
2019-03-30T00:46:36.368Z,69.30
2019-03-30T00:49:49.125Z,69.30
2019-03-30T00:52:46.589Z,69.20
2019-03-30T00:55:50.768Z,70.00
2019-03-30T00:58:55.462Z,69.50
2019-03-30T01:01:59.681Z,69.50
2019-03-30T01:05:03.993Z,69.50
2019-03-30T01:08:08.571Z,69.70
2019-03-30T01:11:12.849Z,69.60
2019-03-30T01:14:17.089Z,69.90
2019-03-30T01:17:21.649Z,70.20
2019-03-30T01:20:25.862Z,71.40
2019-03-30T01:23:30.111Z,70.80
2019-03-30T01:26:34.653Z,70.70
2019-03-30T01:29:38.928Z,71.00
2019-03-30T01:32:43.273Z,71.50
2019-03-30T01:35:47.547Z,71.00
2019-03-30T01:38:51.797Z,71.70
2019-03-30T01:41:56.249Z,71.90
2019-03-30T01:45:00.557Z,71.60
2019-03-30T01:48:04.925Z,72.30
2019-03-30T01:51:09.160Z,72.10
2019-03-30T01:54:13.422Z,71.70
2019-03-30T01:57:17.604Z,71.70
2019-03-30T02:00:21.886Z,71.70
2019-03-30T02:03:26.281Z,72.10
2019-03-30T02:06:31.135Z,71.70
2019-03-30T02:09:35.371Z,71.50
2019-03-30T02:12:39.658Z,71.80
2019-03-30T02:15:43.873Z,72.00
2019-03-30T02:18:48.130Z,72.30
2019-03-30T02:21:52.344Z,72.70
2019-03-30T02:24:57.501Z,72.60
2019-03-30T02:28:01.710Z,73.50
2019-03-30T02:31:05.955Z,73.40
2019-03-30T02:34:10.186Z,73.40
2019-03-30T02:37:14.397Z,73.70
2019-03-30T02:40:19.739Z,73.90
2019-03-30T02:43:24.006Z,73.90
2019-03-30T02:46:28.303Z,73.90
2019-03-30T02:49:32.586Z,74.30
2019-03-30T02:52:36.817Z,74.00
2019-03-30T02:55:41.032Z,74.20
2019-03-30T02:58:45.265Z,74.20
2019-03-30T03:01:49.833Z,74.00
2019-03-30T03:04:54.102Z,74.20
2019-03-30T03:07:58.316Z,75.50
2019-03-30T03:11:02.533Z,76.70
2019-03-30T03:14:06.982Z,75.50
2019-03-30T03:17:11.185Z,75.80
2019-03-30T03:20:15.650Z,76.10
2019-03-30T03:23:20.246Z,76.10
2019-03-30T03:26:24.471Z,76.50
2019-03-30T03:29:28.761Z,76.60
2019-03-30T03:32:33.068Z,75.70
2019-03-30T03:35:37.316Z,76.70
2019-03-30T03:38:41.638Z,76.60
2019-03-30T03:41:45.883Z,76.50
2019-03-30T03:44:50.430Z,76.40
2019-03-30T03:47:54.686Z,76.80
2019-03-30T03:51:02.416Z,76.40
2019-03-30T03:54:06.730Z,77.20
2019-03-30T03:57:13.117Z,77.10
2019-03-30T04:00:17.585Z,77.60
2019-03-30T04:03:23.793Z,77.00
2019-03-30T04:06:30.365Z,77.00
2019-03-30T04:09:37.406Z,78.30
2019-03-30T04:12:43.279Z,77.90
2019-03-30T04:15:47.738Z,78.40
2019-03-30T04:18:51.983Z,77.70
2019-03-30T04:21:56.234Z,77.60
2019-03-30T04:25:00.550Z,76.40
2019-03-30T04:28:04.854Z,76.40
2019-03-30T04:31:09.427Z,76.60
2019-03-30T04:34:13.641Z,77.30
2019-03-30T04:37:17.872Z,76.70
2019-03-30T04:40:22.102Z,77.20
2019-03-30T04:43:26.341Z,77.90
2019-03-30T04:46:30.556Z,77.60
2019-03-30T04:49:35.141Z,76.60
2019-03-30T04:52:39.412Z,76.90
2019-03-30T04:55:43.645Z,76.70
2019-03-30T04:58:48.038Z,77.70
2019-03-30T05:01:52.320Z,77.50
2019-03-30T05:04:56.585Z,78.10
2019-03-30T05:08:00.812Z,78.70
2019-03-30T05:11:05.066Z,78.10
2019-03-30T05:14:09.262Z,78.80
2019-03-30T05:17:13.568Z,78.90
2019-03-30T05:20:17.774Z,79.00
2019-03-30T05:23:21.994Z,78.30
2019-03-30T05:26:26.196Z,77.10
2019-03-30T05:29:30.458Z,77.30
2019-03-30T05:32:34.914Z,77.00
2019-03-30T05:35:39.253Z,77.00
2019-03-30T05:38:43.424Z,76.40
2019-03-30T05:41:47.738Z,76.80
2019-03-30T05:44:51.957Z,75.90
2019-03-30T05:47:56.333Z,75.30
2019-03-30T05:51:00.550Z,74.40
2019-03-30T05:54:04.816Z,75.70
2019-03-30T05:57:09.068Z,74.80
2019-03-30T06:00:15.804Z,74.80
2019-03-30T06:03:20.111Z,75.40
2019-03-30T06:06:24.669Z,75.60
2019-03-30T06:09:29.185Z,75.30
2019-03-30T06:12:33.430Z,75.10
2019-03-30T06:15:37.701Z,74.20
2019-03-30T06:18:44.368Z,74.10
2019-03-30T06:21:48.623Z,72.50
2019-03-30T06:24:52.844Z,69.20
2019-03-30T06:27:57.035Z,66.90
2019-03-30T06:31:01.238Z,67.60
2019-03-30T06:34:05.453Z,67.00
2019-03-30T06:37:09.685Z,66.10
2019-03-30T06:40:14.105Z,65.70
2019-03-30T06:43:18.320Z,64.80
2019-03-30T06:46:22.570Z,65.10
2019-03-30T06:49:26.769Z,65.30
2019-03-30T06:52:30.981Z,61.70
2019-03-30T06:55:35.745Z,59.00
2019-03-30T06:58:39.991Z,58.60
2019-03-30T07:01:44.925Z,58.10
2019-03-30T07:04:49.312Z,56.20
2019-03-30T07:07:53.944Z,53.20
2019-03-30T07:11:01.144Z,52.30
2019-03-30T07:14:05.541Z,52.60
2019-03-30T07:17:12.302Z,53.00
2019-03-30T07:20:30.153Z,54.60
2019-03-30T07:23:34.410Z,52.80
2019-03-30T07:26:38.728Z,53.10
2019-03-30T07:29:43.041Z,53.20
2019-03-30T07:32:47.272Z,52.50
2019-03-30T07:35:52.294Z,52.80
2019-03-30T07:38:56.505Z,53.10
2019-03-30T07:42:01.069Z,53.70
2019-03-30T07:45:05.460Z,53.80
2019-03-30T07:48:09.948Z,54.50
2019-03-30T07:51:14.284Z,55.20
2019-03-30T07:54:18.585Z,55.00
2019-03-30T07:57:22.780Z,54.60
2019-03-30T08:00:30.702Z,53.80
2019-03-30T08:03:33.877Z,52.60
2019-03-30T08:06:38.125Z,52.20
2019-03-30T08:09:42.416Z,52.40
2019-03-30T08:12:46.664Z,52.10
2019-03-30T08:15:50.916Z,51.60
2019-03-30T08:18:55.129Z,51.20
2019-03-30T08:21:59.321Z,50.60
2019-03-30T08:25:03.729Z,49.70
2019-03-30T08:28:07.974Z,49.50
2019-03-30T08:31:12.284Z,48.90
2019-03-30T08:34:16.637Z,49.50
2019-03-30T08:37:20.816Z,47.20
2019-03-30T08:40:25.088Z,46.00
2019-03-30T08:43:29.301Z,46.00
2019-03-30T08:46:36.297Z,46.00
2019-03-30T08:49:40.563Z,46.30
2019-03-30T08:52:45.821Z,46.00
2019-03-30T08:55:50.034Z,43.50
2019-03-30T08:58:54.293Z,44.00
2019-03-30T09:01:58.506Z,43.70
2019-03-30T09:05:03.097Z,42.70
2019-03-30T09:08:07.426Z,42.60
2019-03-30T09:11:11.741Z,42.40
2019-03-30T09:14:16.019Z,42.00
2019-03-30T09:17:20.283Z,41.40
2019-03-30T09:20:24.823Z,41.30
2019-03-30T09:23:29.042Z,40.50
2019-03-30T09:26:33.293Z,41.30
2019-03-30T09:29:37.631Z,39.10
2019-03-30T09:32:44.912Z,38.50
2019-03-30T09:35:47.907Z,38.90
2019-03-30T09:38:52.119Z,39.40
2019-03-30T09:41:56.292Z,37.90
2019-03-30T09:45:00.563Z,38.10
2019-03-30T09:48:04.876Z,39.10
2019-03-30T09:51:09.113Z,37.70
2019-03-30T09:54:23.502Z,37.70
2019-03-30T09:57:19.367Z,35.70
2019-03-30T10:00:23.571Z,35.40
2019-03-30T10:03:27.874Z,36.20
2019-03-30T10:06:34.528Z,37.00
2019-03-30T10:09:38.125Z,35.20
2019-03-30T10:12:42.333Z,35.90
2019-03-30T10:15:46.558Z,34.70
2019-03-30T10:18:51.718Z,34.80
2019-03-30T10:21:55.973Z,35.00
2019-03-30T10:25:00.292Z,34.20
2019-03-30T10:28:04.575Z,34.80
2019-03-30T10:31:08.870Z,34.80
2019-03-30T10:34:13.864Z,34.30
2019-03-30T10:37:18.092Z,35.50
2019-03-30T10:40:22.292Z,35.40
2019-03-30T10:43:26.590Z,35.50
2019-03-30T10:46:30.857Z,35.90
2019-03-30T10:49:35.081Z,33.90
2019-03-30T10:52:39.552Z,34.00
2019-03-30T10:55:43.833Z,33.90
2019-03-30T10:58:48.127Z,33.40
2019-03-30T11:01:53.526Z,33.30
2019-03-30T11:04:57.824Z,32.60
2019-03-30T11:08:02.067Z,31.50
2019-03-30T11:11:06.317Z,30.50
2019-03-30T11:14:10.568Z,29.20
2019-03-30T11:17:14.807Z,29.60
2019-03-30T11:20:19.142Z,28.60
2019-03-30T11:23:23.362Z,28.90
2019-03-30T11:26:27.644Z,28.90
2019-03-30T11:29:32.146Z,28.30
2019-03-30T11:32:36.348Z,28.70
2019-03-30T11:35:40.592Z,29.30
2019-03-30T11:38:44.847Z,28.80
2019-03-30T11:41:49.156Z,28.20
2019-03-30T11:44:53.393Z,28.20
2019-03-30T11:47:57.694Z,28.30
2019-03-30T11:51:01.961Z,29.10
2019-03-30T11:54:07.752Z,28.80
2019-03-30T11:57:12.091Z,28.50
2019-03-30T12:00:16.496Z,28.10
2019-03-30T12:03:20.756Z,27.40
2019-03-30T12:06:25.057Z,28.90
2019-03-30T12:09:29.343Z,28.10
2019-03-30T12:12:37.053Z,27.60
2019-03-30T12:15:39.968Z,27.30
2019-03-30T12:18:44.321Z,26.20
2019-03-30T12:21:48.650Z,26.20
2019-03-30T12:24:52.892Z,26.50
2019-03-30T12:27:57.126Z,27.20
2019-03-30T12:31:01.436Z,27.40
2019-03-30T12:34:05.705Z,27.60
2019-03-30T12:37:09.993Z,26.50
2019-03-30T12:40:14.397Z,26.90
2019-03-30T12:43:18.621Z,27.30
2019-03-30T12:46:23.056Z,26.90
2019-03-30T12:49:27.256Z,27.60
2019-03-30T12:52:31.501Z,24.10
2019-03-30T12:55:48.611Z,24.20
2019-03-30T12:58:41.669Z,23.50
2019-03-30T13:01:45.937Z,23.60
2019-03-30T13:04:50.144Z,23.40
2019-03-30T13:07:54.477Z,23.70
2019-03-30T13:10:58.974Z,23.30
2019-03-30T13:14:03.285Z,22.70
2019-03-30T13:17:07.526Z,23.00
2019-03-30T13:20:12.147Z,22.80
2019-03-30T13:23:16.484Z,22.60
2019-03-30T13:26:20.932Z,22.30
2019-03-30T13:29:25.428Z,22.30
2019-03-30T13:32:29.638Z,21.90
2019-03-30T13:35:33.910Z,21.80
2019-03-30T13:38:38.137Z,22.30
2019-03-30T13:41:42.451Z,21.50
2019-03-30T13:44:46.741Z,21.40
2019-03-30T13:47:51.014Z,20.90
2019-03-30T13:50:55.203Z,21.50
2019-03-30T13:53:59.510Z,21.80
2019-03-30T13:57:03.744Z,22.70
2019-03-30T14:00:09.029Z,21.50
2019-03-30T14:03:13.302Z,21.70
2019-03-30T14:06:17.833Z,21.50
2019-03-30T14:09:22.235Z,21.10
2019-03-30T14:12:26.527Z,20.70
2019-03-30T14:15:30.753Z,20.80
2019-03-30T14:18:35.905Z,21.30
2019-03-30T14:21:40.118Z,21.10
2019-03-30T14:24:44.340Z,21.40
2019-03-30T14:27:48.801Z,21.50
2019-03-30T14:30:53.014Z,21.40
2019-03-30T14:33:57.346Z,21.90
2019-03-30T14:37:02.666Z,21.60
2019-03-30T14:40:07.785Z,22.00
2019-03-30T14:43:12.005Z,21.60
2019-03-30T14:46:16.298Z,22.40
2019-03-30T14:49:21.988Z,21.50
2019-03-30T14:52:26.199Z,21.30
2019-03-30T14:55:30.669Z,21.30
2019-03-30T14:58:35.034Z,22.00
2019-03-30T15:01:39.389Z,22.30
2019-03-30T15:04:43.716Z,22.20
2019-03-30T15:07:48.002Z,22.70
2019-03-30T15:10:52.302Z,23.50
2019-03-30T15:13:56.523Z,23.00
2019-03-30T15:17:00.814Z,22.70
2019-03-30T15:20:05.561Z,22.20
2019-03-30T15:23:09.813Z,22.90
2019-03-30T15:26:14.061Z,23.10
2019-03-30T15:29:18.337Z,23.60
2019-03-30T15:32:22.534Z,23.40
2019-03-30T15:35:26.921Z,23.60
2019-03-30T15:38:31.149Z,23.60
2019-03-30T15:41:35.584Z,23.90
2019-03-30T15:44:39.928Z,23.80
2019-03-30T15:47:44.235Z,23.80
2019-03-30T15:50:48.477Z,23.60
2019-03-30T15:53:52.736Z,23.60
2019-03-30T15:56:57.004Z,22.50
2019-03-30T16:00:01.269Z,22.30
2019-03-30T16:03:05.681Z,22.90
2019-03-30T16:06:10.036Z,22.10
2019-03-30T16:09:14.302Z,22.30
2019-03-30T16:12:18.550Z,22.10
2019-03-30T16:15:22.897Z,22.60
2019-03-30T16:18:27.083Z,23.10
2019-03-30T16:21:31.337Z,23.40
2019-03-30T16:24:36.816Z,23.10
2019-03-30T16:27:41.096Z,23.90
2019-03-30T16:30:45.465Z,23.80
2019-03-30T16:33:49.756Z,24.30
2019-03-30T16:36:55.010Z,23.80
2019-03-30T16:39:59.263Z,23.80
2019-03-30T16:43:03.642Z,23.70
2019-03-30T16:46:07.974Z,23.70
2019-03-30T16:49:12.216Z,24.00
2019-03-30T16:52:16.496Z,24.20
2019-03-30T16:55:20.812Z,24.10
2019-03-30T16:58:25.151Z,24.30
2019-03-30T17:01:29.514Z,24.20
2019-03-30T17:04:33.846Z,24.20
2019-03-30T17:07:38.206Z,23.90
2019-03-30T17:10:42.443Z,24.10
2019-03-30T17:13:46.823Z,24.20
2019-03-30T17:16:53.051Z,24.00
2019-03-30T17:19:57.443Z,24.40
2019-03-30T17:23:02.849Z,24.60
2019-03-30T17:26:07.145Z,25.00
2019-03-30T17:29:19.778Z,24.70
2019-03-30T17:32:24.008Z,25.00
2019-03-30T17:35:30.236Z,25.50
2019-03-30T17:38:34.593Z,26.00
2019-03-30T17:41:39.302Z,25.50
2019-03-30T17:44:43.600Z,25.90
2019-03-30T17:47:48.481Z,26.30
2019-03-30T17:50:52.703Z,26.80
2019-03-30T17:53:59.038Z,27.30
2019-03-30T17:57:03.042Z,27.30
2019-03-30T18:00:08.428Z,27.80
2019-03-30T18:03:14.036Z,28.10
2019-03-30T18:06:18.369Z,28.60
2019-03-30T18:09:22.654Z,28.80
2019-03-30T18:12:26.933Z,29.10
2019-03-30T18:15:34.486Z,29.00
2019-03-30T18:18:37.424Z,29.10
2019-03-30T18:21:41.672Z,29.10
2019-03-30T18:24:45.938Z,29.10
2019-03-30T18:27:50.502Z,29.10
2019-03-30T18:30:55.037Z,29.00
2019-03-30T18:33:59.356Z,29.00
2019-03-30T18:37:04.248Z,29.10
2019-03-30T18:40:08.881Z,29.20
2019-03-30T18:43:13.221Z,29.00
2019-03-30T18:46:17.514Z,29.20
2019-03-30T18:49:21.857Z,29.50
2019-03-30T18:52:26.192Z,29.60
2019-03-30T18:55:30.461Z,29.90
2019-03-30T18:58:41.958Z,30.00
2019-03-30T19:01:42.632Z,30.20
2019-03-30T19:04:46.938Z,30.80
2019-03-30T19:07:51.177Z,31.20
2019-03-30T19:10:55.645Z,31.80
2019-03-30T19:14:00.055Z,31.70
2019-03-30T19:17:04.498Z,32.00
2019-03-30T19:20:09.118Z,32.50
2019-03-30T19:23:13.432Z,32.50
2019-03-30T19:26:17.910Z,32.40
2019-03-30T19:29:22.258Z,32.80
2019-03-30T19:32:28.986Z,33.30
2019-03-30T19:35:33.466Z,33.40
2019-03-30T19:38:37.814Z,33.50
2019-03-30T19:41:43.952Z,33.70
2019-03-30T19:44:48.309Z,34.10
2019-03-30T19:47:52.874Z,34.30
2019-03-30T19:50:57.727Z,34.60
2019-03-30T19:54:02.314Z,34.60
2019-03-30T19:57:06.587Z,34.80
2019-03-30T20:00:12.270Z,35.30
2019-03-30T20:03:16.974Z,35.10
2019-03-30T20:06:22.458Z,35.40
2019-03-30T20:09:26.847Z,35.50
2019-03-30T20:12:31.234Z,35.60
2019-03-30T20:15:56.345Z,35.80
2019-03-30T20:19:12.002Z,36.20
2019-03-30T20:22:07.064Z,37.10
2019-03-30T20:25:11.605Z,36.40
2019-03-30T20:28:16.073Z,36.30
2019-03-30T20:31:20.342Z,36.30
2019-03-30T20:34:25.123Z,36.40
2019-03-30T20:37:29.568Z,36.80
2019-03-30T20:40:34.762Z,36.30
2019-03-30T20:43:39.330Z,36.40
2019-03-30T20:46:43.963Z,36.40
2019-03-30T20:49:48.336Z,36.40
2019-03-30T20:52:53.445Z,36.40
2019-03-30T20:55:57.885Z,36.40
2019-03-30T20:59:02.299Z,36.30
2019-03-30T21:02:06.606Z,36.30
2019-03-30T21:05:11.309Z,36.60
2019-03-30T21:08:15.842Z,36.30
2019-03-30T21:11:20.254Z,36.40
2019-03-30T21:14:24.871Z,36.60
2019-03-30T21:17:29.413Z,36.90
2019-03-30T21:20:34.075Z,36.30
2019-03-30T21:23:38.546Z,36.30
2019-03-30T21:26:42.895Z,36.30
2019-03-30T21:29:54.596Z,36.30
2019-03-30T21:32:53.335Z,36.40
2019-03-30T21:35:57.692Z,36.60
2019-03-30T21:39:02.072Z,36.30
2019-03-30T21:42:06.476Z,36.30
2019-03-30T21:45:11.023Z,36.00
2019-03-30T21:48:15.358Z,36.30
2019-03-30T21:51:19.664Z,36.30
2019-03-30T21:54:23.973Z,36.30
2019-03-30T21:57:28.221Z,37.00
2019-03-30T22:00:54.253Z,36.30
2019-03-30T22:03:55.990Z,36.30
2019-03-30T22:07:01.094Z,36.20
2019-03-30T22:10:07.193Z,36.20
2019-03-30T22:13:11.491Z,36.30
2019-03-30T22:16:15.703Z,36.30
2019-03-30T22:19:20.994Z,36.30
2019-03-30T22:22:25.254Z,36.30
2019-03-30T22:25:29.678Z,36.20
2019-03-30T22:28:34.006Z,36.70
2019-03-30T22:31:38.282Z,37.00
2019-03-30T22:34:42.585Z,37.00
2019-03-30T22:37:46.892Z,37.20
2019-03-30T22:40:51.374Z,37.70
2019-03-30T22:43:55.672Z,37.70
2019-03-30T22:46:59.977Z,38.10
2019-03-30T22:50:04.534Z,38.10
2019-03-30T22:53:08.822Z,38.50
2019-03-30T22:56:13.157Z,38.50
2019-03-30T22:59:17.499Z,38.70
2019-03-30T23:02:22.713Z,38.90
2019-03-30T23:05:27.310Z,39.20
2019-03-30T23:08:31.583Z,39.30
2019-03-30T23:11:35.892Z,39.50
2019-03-30T23:14:40.389Z,39.70
2019-03-30T23:17:44.730Z,39.80
2019-03-30T23:20:49.066Z,39.80
2019-03-30T23:23:53.317Z,40.00
2019-03-30T23:26:57.689Z,40.20
2019-03-30T23:30:01.967Z,40.20
2019-03-30T23:33:06.402Z,40.10
2019-03-30T23:36:10.629Z,40.40
2019-03-30T23:39:15.710Z,40.70
2019-03-30T23:42:19.993Z,41.20
2019-03-30T23:45:24.269Z,41.20
2019-03-30T23:48:28.559Z,41.60
2019-03-30T23:51:33.556Z,41.70
2019-03-30T23:54:37.807Z,41.90
2019-03-30T23:57:42.142Z,42.00
